Eastern Iowa Airport (CID)


Airport Diagram
Current Weather/Forecast (VFR Conditions)
METAR KCID 120852Z AUTO 13007KT 10SM SCT080 17/14 A3020 RMK AO2 SLP221 T01720144 53003
TAF KCID 120524Z 1206/1306 11005KT P6SM OVC080 FM121300 11007KT 5SM -SHRA OVC040 TEMPO 1213/1216 4SM -TSRA BR OVC035CB FM121600 13007KT P6SM BKN100

All Charts
General
Chart Name Download
AIRPORT DIAGRAM
TAKEOFF MINIMUMS
ALTERNATE MINIMUMS
HOT SPOT

Approaches
Chart Name Download
ILS OR LOC RWY 09
ILS OR LOC RWY 27
RNAV (GPS) RWY 09
RNAV (GPS) RWY 13
RNAV (GPS) RWY 27
RNAV (GPS) RWY 31